createdAt,value
2018-11-11T00:02:14.641Z,14.03
2018-11-11T00:04:42.707Z,14.07
2018-11-11T00:07:10.772Z,15.03
2018-11-11T00:09:38.835Z,15.67
2018-11-11T00:12:06.931Z,16.03
2018-11-11T00:14:35.014Z,15.53
2018-11-11T00:17:03.091Z,16.77
2018-11-11T00:19:31.173Z,15.10
2018-11-11T00:21:59.266Z,18.13
2018-11-11T00:24:27.343Z,17.97
2018-11-11T00:26:55.429Z,18.10
2018-11-11T00:29:23.502Z,19.80
2018-11-11T00:31:51.573Z,17.67
2018-11-11T00:34:19.651Z,18.60
2018-11-11T00:36:47.730Z,18.40
2018-11-11T00:39:15.779Z,19.07
2018-11-11T00:41:43.851Z,18.93
2018-11-11T00:44:11.911Z,19.80
2018-11-11T00:46:39.987Z,18.37
2018-11-11T00:49:08.418Z,19.57
2018-11-11T00:51:36.526Z,19.60
2018-11-11T00:54:04.614Z,19.17
2018-11-11T00:56:32.663Z,21.80
2018-11-11T00:59:00.724Z,20.50
2018-11-11T01:01:28.774Z,21.53
2018-11-11T01:03:56.843Z,20.87
2018-11-11T01:06:24.893Z,21.93
2018-11-11T01:08:52.972Z,22.47
2018-11-11T01:11:21.007Z,22.30
2018-11-11T01:13:49.058Z,24.67
2018-11-11T01:16:17.136Z,21.93
2018-11-11T01:18:45.176Z,22.47
2018-11-11T01:21:13.239Z,23.37
2018-11-11T01:23:41.276Z,21.13
2018-11-11T01:26:09.350Z,21.30
2018-11-11T01:28:37.423Z,21.60
2018-11-11T01:31:06.091Z,21.53
2018-11-11T01:33:34.160Z,21.60
2018-11-11T01:36:02.215Z,21.57
2018-11-11T01:38:30.282Z,23.17
2018-11-11T01:40:58.323Z,19.97
2018-11-11T01:43:26.402Z,22.70
2018-11-11T01:45:54.462Z,20.13
2018-11-11T01:48:22.547Z,21.97
2018-11-11T01:50:50.594Z,21.67
2018-11-11T01:53:18.655Z,21.00
2018-11-11T01:55:46.734Z,20.47
2018-11-11T01:58:14.779Z,22.23
2018-11-11T02:00:42.839Z,19.43
2018-11-11T02:03:10.891Z,19.97
2018-11-11T02:05:38.942Z,20.83
2018-11-11T02:08:07.098Z,19.20
2018-11-11T02:10:35.158Z,18.77
2018-11-11T02:13:03.209Z,19.53
2018-11-11T02:15:31.271Z,18.97
2018-11-11T02:17:59.326Z,19.43
2018-11-11T02:20:27.384Z,21.83
2018-11-11T02:22:55.449Z,20.07
2018-11-11T02:25:23.491Z,18.67
2018-11-11T02:27:51.550Z,21.20
2018-11-11T02:30:20.892Z,19.70
2018-11-11T02:32:48.954Z,18.67
2018-11-11T02:35:17.073Z,20.00
2018-11-11T02:37:45.436Z,17.97
2018-11-11T02:40:14.627Z,17.40
2018-11-11T02:42:42.908Z,18.67
2018-11-11T02:45:12.300Z,17.83
2018-11-11T02:47:40.338Z,18.60
2018-11-11T02:50:10.296Z,20.23
2018-11-11T02:52:38.666Z,19.87
2018-11-11T02:55:07.138Z,19.50
2018-11-11T02:57:35.418Z,21.73
2018-11-11T03:00:03.506Z,21.87
2018-11-11T03:02:31.562Z,21.97
2018-11-11T03:04:59.611Z,24.87
2018-11-11T03:07:27.686Z,25.67
2018-11-11T03:09:55.739Z,23.53
2018-11-11T03:12:23.803Z,23.17
2018-11-11T03:14:51.881Z,21.17
2018-11-11T03:17:19.932Z,20.40
2018-11-11T03:19:47.983Z,23.13
2018-11-11T03:22:16.043Z,21.47
2018-11-11T03:24:44.111Z,24.00
2018-11-11T03:27:12.190Z,22.67
2018-11-11T03:29:40.459Z,22.97
2018-11-11T03:32:08.524Z,22.40
2018-11-11T03:34:36.649Z,26.10
2018-11-11T03:37:05.635Z,22.43
2018-11-11T03:39:33.687Z,26.47
2018-11-11T03:42:01.847Z,24.53
2018-11-11T03:44:29.923Z,22.53
2018-11-11T03:46:58.007Z,27.80
2018-11-11T03:49:26.085Z,26.10
2018-11-11T03:51:54.126Z,22.80
2018-11-11T03:54:22.187Z,21.20
2018-11-11T03:56:50.269Z,23.67
2018-11-11T03:59:18.396Z,24.13
2018-11-11T04:01:46.449Z,23.67
2018-11-11T04:04:21.217Z,26.77
2018-11-11T04:06:49.282Z,24.40
2018-11-11T04:09:17.331Z,24.87
2018-11-11T04:11:45.414Z,26.30
2018-11-11T04:14:13.472Z,23.40
2018-11-11T04:16:41.514Z,25.33
2018-11-11T04:19:09.986Z,24.03
2018-11-11T04:21:38.066Z,27.10
2018-11-11T04:24:06.658Z,25.97
2018-11-11T04:26:34.718Z,24.80
2018-11-11T04:29:02.805Z,29.30
2018-11-11T04:31:30.900Z,26.43
2018-11-11T04:33:58.962Z,25.97
2018-11-11T04:36:27.023Z,21.90
2018-11-11T04:38:55.076Z,22.13
2018-11-11T04:41:23.127Z,23.57
2018-11-11T04:43:51.199Z,21.27
2018-11-11T04:46:19.309Z,21.43
2018-11-11T04:48:47.335Z,18.73
2018-11-11T04:51:15.388Z,20.03
2018-11-11T04:53:43.462Z,17.43
2018-11-11T04:56:11.514Z,18.10
2018-11-11T04:58:39.599Z,18.07
2018-11-11T05:01:07.659Z,17.53
2018-11-11T05:03:35.748Z,17.67
2018-11-11T05:06:03.830Z,18.50
2018-11-11T05:08:31.879Z,16.17
2018-11-11T05:10:59.976Z,15.47
2018-11-11T05:13:28.047Z,17.70
2018-11-11T05:15:56.124Z,15.97
2018-11-11T05:18:24.211Z,15.03
2018-11-11T05:20:52.280Z,15.90
2018-11-11T05:23:20.341Z,16.73
2018-11-11T05:25:48.387Z,16.10
2018-11-11T05:28:16.458Z,16.37
2018-11-11T05:30:44.536Z,16.73
2018-11-11T05:33:12.603Z,16.40
2018-11-11T05:35:40.654Z,18.07
2018-11-11T05:38:08.720Z,17.07
2018-11-11T05:40:36.770Z,17.30
2018-11-11T05:43:04.887Z,14.43
2018-11-11T05:45:32.946Z,14.33
2018-11-11T05:48:01.018Z,14.40
2018-11-11T05:50:29.090Z,13.67
2018-11-11T05:52:57.155Z,13.13
2018-11-11T05:55:25.227Z,12.93
2018-11-11T05:57:53.303Z,13.80
2018-11-11T06:00:21.376Z,16.97
2018-11-11T06:02:49.426Z,16.73
2018-11-11T06:05:17.482Z,14.70
2018-11-11T06:07:45.551Z,16.90
2018-11-11T06:10:14.563Z,17.67
2018-11-11T06:12:42.627Z,19.23
2018-11-11T06:15:11.723Z,19.60
2018-11-11T06:17:39.791Z,19.90
2018-11-11T06:20:10.327Z,19.93
2018-11-11T06:22:38.419Z,23.50
2018-11-11T06:25:07.066Z,19.97
2018-11-11T06:27:35.271Z,20.20
2018-11-11T06:30:03.220Z,19.77
2018-11-11T06:32:31.311Z,18.27
2018-11-11T06:34:59.368Z,15.87
2018-11-11T06:37:27.445Z,18.33
2018-11-11T06:39:55.518Z,19.53
2018-11-11T06:42:23.583Z,17.00
2018-11-11T06:44:51.679Z,16.63
2018-11-11T06:47:19.740Z,18.23
2018-11-11T06:49:47.831Z,18.03
2018-11-11T06:52:15.902Z,14.20
2018-11-11T06:54:43.991Z,15.40
2018-11-11T06:57:12.059Z,17.80
2018-11-11T06:59:40.291Z,17.27
2018-11-11T07:02:08.414Z,15.70
2018-11-11T07:04:36.470Z,16.67
2018-11-11T07:07:04.558Z,15.00
2018-11-11T07:09:32.627Z,12.90
2018-11-11T07:12:00.693Z,14.20
2018-11-11T07:14:28.742Z,13.40
2018-11-11T07:16:56.805Z,14.80
2018-11-11T07:19:24.859Z,12.23
2018-11-11T07:21:52.922Z,13.90
2018-11-11T07:24:20.975Z,12.10
2018-11-11T07:26:49.035Z,13.27
2018-11-11T07:29:17.093Z,12.50
2018-11-11T07:31:45.159Z,13.40
2018-11-11T07:34:13.250Z,13.00
2018-11-11T07:36:41.310Z,16.63
2018-11-11T07:39:11.894Z,14.83
2018-11-11T07:41:39.950Z,16.87
2018-11-11T07:44:08.018Z,16.77
2018-11-11T07:46:36.067Z,15.93
2018-11-11T07:49:04.122Z,17.83
2018-11-11T07:51:32.166Z,15.80
2018-11-11T07:54:00.226Z,16.87
2018-11-11T07:56:28.306Z,15.30
2018-11-11T07:58:56.372Z,15.23
2018-11-11T08:01:24.464Z,16.73
2018-11-11T08:03:52.482Z,19.00
2018-11-11T08:06:20.531Z,14.53
2018-11-11T08:08:48.594Z,15.67
2018-11-11T08:11:28.239Z,17.63
2018-11-11T08:13:56.315Z,14.27
2018-11-11T08:16:24.367Z,15.47
2018-11-11T08:18:52.491Z,13.07
2018-11-11T08:21:20.551Z,13.93
2018-11-11T08:23:48.698Z,12.90
2018-11-11T08:26:16.759Z,13.97
2018-11-11T08:28:44.850Z,13.87
2018-11-11T08:31:12.942Z,11.87
2018-11-11T08:33:41.091Z,11.47
2018-11-11T08:36:09.174Z,11.93
2018-11-11T08:38:37.355Z,14.33
2018-11-11T08:41:05.578Z,12.73
2018-11-11T08:43:33.629Z,11.40
2018-11-11T08:46:01.779Z,11.37
2018-11-11T08:48:29.829Z,11.20
2018-11-11T08:50:57.875Z,9.97
2018-11-11T08:53:25.930Z,10.53
2018-11-11T08:55:54.046Z,9.90
2018-11-11T08:58:22.149Z,10.97
2018-11-11T09:00:50.208Z,13.27
2018-11-11T09:03:18.254Z,10.30
2018-11-11T09:05:47.083Z,10.67
2018-11-11T09:08:15.222Z,10.20
2018-11-11T09:10:43.299Z,10.87
2018-11-11T09:13:14.300Z,9.77
2018-11-11T09:15:42.429Z,9.83
2018-11-11T09:18:10.487Z,9.77
2018-11-11T09:20:38.567Z,9.60
2018-11-11T09:23:06.627Z,8.97
2018-11-11T09:25:34.683Z,8.23
2018-11-11T09:28:02.771Z,8.10
2018-11-11T09:30:30.944Z,8.23
2018-11-11T09:32:58.911Z,7.87
2018-11-11T09:35:27.001Z,8.73
2018-11-11T09:37:55.013Z,9.67
2018-11-11T09:40:23.138Z,8.10
2018-11-11T09:42:51.198Z,8.07
2018-11-11T09:45:19.288Z,7.70
2018-11-11T09:47:47.393Z,7.80
2018-11-11T09:50:17.006Z,6.57
2018-11-11T09:52:45.231Z,6.50
2018-11-11T09:55:14.287Z,6.10
2018-11-11T09:57:42.456Z,4.70
2018-11-11T10:00:13.310Z,3.60
2018-11-11T10:02:42.074Z,3.97
2018-11-11T10:05:15.288Z,2.60
2018-11-11T10:07:48.967Z,2.80
2018-11-11T10:10:39.366Z,3.40
2018-11-11T10:13:12.008Z,3.33
2018-11-11T10:15:47.695Z,2.53
2018-11-11T10:20:28.277Z,2.80
2018-11-11T10:23:03.046Z,4.67
2018-11-11T10:25:35.201Z,4.13
2018-11-11T10:28:23.830Z,2.70
2018-11-11T10:31:13.534Z,3.30
2018-11-11T10:33:47.026Z,2.50
2018-11-11T10:36:20.342Z,2.43
2018-11-11T10:38:52.462Z,2.07
2018-11-11T10:41:25.775Z,1.60
2018-11-11T10:43:56.598Z,1.80
2018-11-11T10:46:56.415Z,1.33
2018-11-11T10:49:42.607Z,1.70
2018-11-11T10:52:10.686Z,1.57
2018-11-11T10:54:38.718Z,3.53
2018-11-11T10:57:06.803Z,1.23
2018-11-11T10:59:34.859Z,1.13
2018-11-11T11:02:08.310Z,2.63
2018-11-11T11:04:40.619Z,1.10
2018-11-11T11:07:08.682Z,2.03
2018-11-11T11:09:36.734Z,1.10
2018-11-11T11:12:04.787Z,2.07
2018-11-11T11:14:32.847Z,3.33
2018-11-11T11:17:00.911Z,1.43
2018-11-11T11:19:28.977Z,1.30
2018-11-11T11:21:57.252Z,2.30
2018-11-11T11:24:25.317Z,1.10
2018-11-11T11:26:53.376Z,0.80
2018-11-11T11:29:21.428Z,0.80
2018-11-11T11:31:49.499Z,0.90
2018-11-11T11:34:17.735Z,1.43
2018-11-11T11:36:45.798Z,1.50
2018-11-11T11:39:13.879Z,0.90
2018-11-11T11:41:41.932Z,1.10
2018-11-11T11:44:10.093Z,1.00
2018-11-11T11:46:38.090Z,1.10
2018-11-11T11:49:06.149Z,1.47
2018-11-11T11:51:34.215Z,1.10
2018-11-11T11:54:02.299Z,1.97
2018-11-11T11:56:30.487Z,1.80
2018-11-11T11:58:58.535Z,1.10
2018-11-11T12:01:26.590Z,0.80
2018-11-11T12:03:54.639Z,0.70
2018-11-11T12:06:22.678Z,1.07
2018-11-11T12:08:50.889Z,1.10
2018-11-11T12:11:18.808Z,0.63
2018-11-11T12:13:46.884Z,1.00
2018-11-11T12:16:14.933Z,2.23
2018-11-11T12:18:42.985Z,1.10
2018-11-11T12:21:11.035Z,1.40
2018-11-11T12:23:39.123Z,1.47
2018-11-11T12:26:07.170Z,1.03
2018-11-11T12:28:35.223Z,1.10
2018-11-11T12:31:03.278Z,3.20
2018-11-11T12:33:31.342Z,1.30
2018-11-11T12:35:59.403Z,1.30
2018-11-11T12:38:27.458Z,1.40
2018-11-11T12:40:55.541Z,0.93
2018-11-11T12:43:23.635Z,1.30
2018-11-11T12:45:51.646Z,1.17
2018-11-11T12:48:19.702Z,1.30
2018-11-11T12:50:47.770Z,1.10
2018-11-11T12:53:15.819Z,1.33
2018-11-11T12:55:43.877Z,2.07
2018-11-11T12:58:11.951Z,2.27
2018-11-11T13:00:40.065Z,1.50
2018-11-11T13:03:08.090Z,1.30
2018-11-11T13:05:36.164Z,1.40
2018-11-11T13:08:04.328Z,1.30
2018-11-11T13:10:32.386Z,0.90
2018-11-11T13:13:00.451Z,1.53
2018-11-11T13:15:28.502Z,1.57
2018-11-11T13:17:56.563Z,2.47
2018-11-11T13:20:24.627Z,2.13
2018-11-11T13:22:52.821Z,1.20
2018-11-11T13:25:20.763Z,1.60
2018-11-11T13:27:48.823Z,1.27
2018-11-11T13:30:16.887Z,1.10
2018-11-11T13:32:44.942Z,1.77
2018-11-11T13:35:15.206Z,0.90
2018-11-11T13:37:43.450Z,1.40
2018-11-11T13:40:14.047Z,1.77
2018-11-11T13:42:42.283Z,1.43
2018-11-11T13:45:13.238Z,1.73
2018-11-11T13:47:41.921Z,1.80
2018-11-11T13:50:13.276Z,1.50
2018-11-11T13:52:41.319Z,1.50
2018-11-11T13:55:11.010Z,2.63
2018-11-11T13:57:39.235Z,2.20
2018-11-11T14:00:14.046Z,2.10
2018-11-11T14:02:42.223Z,1.37
2018-11-11T14:05:10.197Z,2.13
2018-11-11T14:07:38.370Z,1.93
2018-11-11T14:10:07.979Z,2.00
2018-11-11T14:12:36.463Z,3.00
2018-11-11T14:15:06.234Z,2.93
2018-11-11T14:17:34.306Z,2.00
2018-11-11T14:20:02.387Z,2.67
2018-11-11T14:22:30.443Z,3.90
2018-11-11T14:24:58.540Z,1.70
2018-11-11T14:27:26.731Z,3.93
2018-11-11T14:29:54.847Z,3.00
2018-11-11T14:32:23.037Z,2.00
2018-11-11T14:34:51.082Z,1.43
2018-11-11T14:37:19.096Z,2.60
2018-11-11T14:39:47.226Z,1.40
2018-11-11T14:42:15.322Z,2.37
2018-11-11T14:44:43.395Z,3.17
2018-11-11T14:47:17.296Z,2.87
2018-11-11T14:49:45.407Z,3.23
2018-11-11T14:52:13.664Z,1.10
2018-11-11T14:54:41.659Z,1.10
2018-11-11T14:57:09.751Z,1.07
2018-11-11T14:59:37.819Z,2.20
2018-11-11T15:02:06.091Z,1.23
2018-11-11T15:04:34.238Z,1.33
2018-11-11T15:07:02.439Z,2.30
2018-11-11T15:09:30.503Z,1.40
2018-11-11T15:11:58.588Z,1.40
2018-11-11T15:14:26.756Z,1.37
2018-11-11T15:16:54.921Z,1.73
2018-11-11T15:19:23.428Z,1.80
2018-11-11T15:21:51.362Z,3.20
2018-11-11T15:24:19.430Z,1.80
2018-11-11T15:26:48.431Z,1.80
2018-11-11T15:29:17.108Z,2.33
2018-11-11T15:31:45.159Z,1.83
2018-11-11T15:34:13.222Z,1.50
2018-11-11T15:36:41.282Z,1.57
2018-11-11T15:39:10.555Z,2.60
2018-11-11T15:41:38.956Z,2.50
2018-11-11T15:44:07.170Z,2.43
2018-11-11T15:46:35.278Z,2.40
2018-11-11T15:49:03.510Z,2.47
2018-11-11T15:51:31.619Z,3.80
2018-11-11T15:53:59.683Z,2.60
2018-11-11T15:56:27.851Z,2.23
2018-11-11T15:58:55.948Z,3.07
2018-11-11T16:01:23.975Z,2.27
2018-11-11T16:03:52.052Z,1.93
2018-11-11T16:06:20.135Z,2.73
2018-11-11T16:08:48.159Z,2.40
2018-11-11T16:11:16.231Z,2.40
2018-11-11T16:13:44.323Z,3.43
2018-11-11T16:16:12.403Z,3.07
2018-11-11T16:18:40.562Z,3.73
2018-11-11T16:21:08.550Z,2.60
2018-11-11T16:23:36.695Z,4.70
2018-11-11T16:26:04.675Z,4.90
2018-11-11T16:28:32.722Z,3.07
2018-11-11T16:31:00.811Z,4.20
2018-11-11T16:33:28.911Z,3.63
2018-11-11T16:35:56.956Z,4.17
2018-11-11T16:38:25.054Z,3.30
2018-11-11T16:40:53.174Z,4.30
2018-11-11T16:43:21.196Z,3.37
2018-11-11T16:45:49.246Z,3.30
2018-11-11T16:48:17.331Z,3.23
2018-11-11T16:50:45.385Z,3.70
2018-11-11T16:53:13.626Z,4.07
2018-11-11T16:55:41.526Z,4.07
2018-11-11T16:58:09.604Z,4.97
2018-11-11T17:00:38.257Z,4.30
2018-11-11T17:03:07.263Z,3.83
2018-11-11T17:05:36.457Z,6.10
2018-11-11T17:08:04.731Z,5.50
2018-11-11T17:10:34.027Z,6.00
2018-11-11T17:13:03.939Z,6.10
2018-11-11T17:15:32.631Z,6.63
2018-11-11T17:18:00.703Z,5.93
2018-11-11T17:20:29.031Z,7.77
2018-11-11T17:22:58.447Z,6.27
2018-11-11T17:25:26.959Z,7.37
2018-11-11T17:27:55.167Z,6.60
2018-11-11T17:30:27.408Z,6.53
2018-11-11T17:32:55.957Z,5.93
2018-11-11T17:35:23.960Z,5.60
2018-11-11T17:37:52.043Z,5.87
2018-11-11T17:40:21.472Z,6.53
2018-11-11T17:42:50.531Z,5.90
2018-11-11T17:45:18.919Z,5.83
2018-11-11T17:47:47.698Z,5.60
2018-11-11T17:50:17.816Z,5.20
2018-11-11T17:52:45.870Z,5.50
2018-11-11T17:55:15.499Z,7.70
2018-11-11T17:57:44.078Z,4.97
2018-11-11T18:00:14.515Z,6.33
2018-11-11T18:02:42.915Z,9.07
2018-11-11T18:05:12.187Z,5.07
2018-11-11T18:07:40.275Z,5.53
2018-11-11T18:10:10.282Z,5.47
2018-11-11T18:12:38.562Z,6.53
2018-11-11T18:15:07.693Z,7.00
2018-11-11T18:17:35.756Z,6.50
2018-11-11T18:20:04.285Z,6.27
2018-11-11T18:22:32.318Z,7.33
2018-11-11T18:25:00.406Z,6.20
2018-11-11T18:27:28.562Z,6.10
2018-11-11T18:29:56.526Z,7.23
2018-11-11T18:32:24.596Z,6.90
2018-11-11T18:34:52.652Z,6.23
2018-11-11T18:37:20.730Z,6.37
2018-11-11T18:39:48.813Z,7.07
2018-11-11T18:42:16.903Z,8.10
2018-11-11T18:44:44.953Z,8.07
2018-11-11T18:47:13.023Z,8.90
2018-11-11T18:49:41.094Z,8.37
2018-11-11T18:52:09.175Z,7.27
2018-11-11T18:54:37.238Z,7.50
2018-11-11T18:57:05.769Z,7.20
2018-11-11T18:59:33.931Z,11.50
2018-11-11T19:02:01.981Z,8.63
2018-11-11T19:04:30.036Z,9.07
2018-11-11T19:06:58.095Z,7.57
2018-11-11T19:09:26.163Z,7.40
2018-11-11T19:11:54.270Z,7.67
2018-11-11T19:14:22.327Z,7.50
2018-11-11T19:16:50.402Z,7.33
2018-11-11T19:19:18.470Z,7.70
2018-11-11T19:21:46.627Z,7.00
2018-11-11T19:24:14.693Z,9.07
2018-11-11T19:26:42.744Z,7.93
2018-11-11T19:29:10.804Z,8.53
2018-11-11T19:31:38.875Z,8.53
2018-11-11T19:34:06.947Z,10.17
2018-11-11T19:36:35.007Z,7.87
2018-11-11T19:39:03.578Z,11.93
2018-11-11T19:41:31.733Z,7.87
2018-11-11T19:43:59.721Z,7.60
2018-11-11T19:46:27.783Z,6.23
2018-11-11T19:48:55.856Z,6.50
2018-11-11T19:51:23.941Z,6.10
2018-11-11T19:53:51.991Z,6.30
2018-11-11T19:56:20.067Z,6.23
2018-11-11T19:58:48.183Z,5.90
2018-11-11T20:01:16.246Z,8.07
2018-11-11T20:03:44.311Z,6.57
2018-11-11T20:06:12.419Z,6.60
2018-11-11T20:08:40.519Z,6.97
2018-11-11T20:11:08.661Z,5.70
2018-11-11T20:13:36.715Z,6.73
2018-11-11T20:16:05.126Z,5.83
2018-11-11T20:18:33.183Z,5.47
2018-11-11T20:21:01.251Z,5.80
2018-11-11T20:23:29.326Z,8.30
2018-11-11T20:25:57.392Z,5.93
2018-11-11T20:28:25.473Z,6.23
2018-11-11T20:30:53.546Z,6.10
2018-11-11T20:33:21.667Z,6.33
2018-11-11T20:35:49.783Z,6.33
2018-11-11T20:38:17.811Z,5.70
2018-11-11T20:40:45.866Z,5.43
2018-11-11T20:43:14.007Z,5.43
2018-11-11T20:45:42.028Z,5.33
2018-11-11T20:48:10.099Z,4.90
2018-11-11T20:50:38.190Z,5.10
2018-11-11T20:53:06.727Z,5.73
2018-11-11T20:55:35.019Z,5.67
2018-11-11T20:58:03.363Z,5.07
2018-11-11T21:00:35.945Z,4.90
2018-11-11T21:03:04.166Z,5.10
2018-11-11T21:05:32.399Z,4.53
2018-11-11T21:08:00.562Z,4.73
2018-11-11T21:10:29.200Z,6.17
2018-11-11T21:12:57.638Z,5.47
2018-11-11T21:15:26.953Z,4.97
2018-11-11T21:17:55.010Z,5.80
2018-11-11T21:20:24.602Z,6.80
2018-11-11T21:22:52.807Z,8.03
2018-11-11T21:25:21.027Z,5.80
2018-11-11T21:27:49.861Z,6.57
2018-11-11T21:30:19.258Z,6.70
2018-11-11T21:32:47.673Z,9.13
2018-11-11T21:35:15.682Z,7.17
2018-11-11T21:37:43.798Z,7.63
2018-11-11T21:40:14.815Z,7.10
2018-11-11T21:42:43.610Z,6.83
2018-11-11T21:45:12.947Z,6.63
2018-11-11T21:47:41.391Z,6.83
2018-11-11T21:50:11.403Z,6.43
2018-11-11T21:52:39.502Z,7.63
2018-11-11T21:55:07.780Z,6.37
2018-11-11T21:57:36.044Z,6.70
2018-11-11T22:00:04.594Z,7.40
2018-11-11T22:02:32.663Z,6.63
2018-11-11T22:05:00.754Z,6.60
2018-11-11T22:07:29.151Z,7.30
2018-11-11T22:09:57.280Z,8.27
2018-11-11T22:12:25.312Z,6.10
2018-11-11T22:14:53.390Z,6.53
2018-11-11T22:17:21.459Z,6.57
2018-11-11T22:19:49.523Z,6.93
2018-11-11T22:22:17.604Z,7.13
2018-11-11T22:24:45.650Z,6.60
2018-11-11T22:27:13.754Z,6.87
2018-11-11T22:29:41.812Z,7.50
2018-11-11T22:32:09.923Z,6.30
2018-11-11T22:34:38.007Z,7.00
2018-11-11T22:37:06.826Z,6.63
2018-11-11T22:39:35.002Z,6.40
2018-11-11T22:42:03.129Z,6.13
2018-11-11T22:44:31.222Z,6.47
2018-11-11T22:46:59.289Z,6.30
2018-11-11T22:49:27.459Z,6.30
2018-11-11T22:51:55.502Z,5.90
2018-11-11T22:54:23.570Z,6.83
2018-11-11T22:56:51.651Z,5.97
2018-11-11T22:59:19.732Z,6.33
2018-11-11T23:01:47.898Z,6.50
2018-11-11T23:04:16.262Z,5.87
2018-11-11T23:06:44.338Z,5.33
2018-11-11T23:09:12.631Z,6.13
2018-11-11T23:11:40.848Z,5.07
2018-11-11T23:14:09.435Z,5.43
2018-11-11T23:16:37.531Z,8.53
2018-11-11T23:19:05.787Z,5.80
2018-11-11T23:21:33.897Z,8.87
2018-11-11T23:24:01.985Z,5.33
2018-11-11T23:26:30.067Z,5.20
2018-11-11T23:28:58.279Z,4.63
2018-11-11T23:31:26.342Z,4.50
2018-11-11T23:33:54.407Z,4.30
2018-11-11T23:36:22.475Z,4.70
2018-11-11T23:38:50.531Z,4.67
2018-11-11T23:41:18.672Z,4.37
2018-11-11T23:43:46.824Z,4.50
2018-11-11T23:46:14.911Z,4.23
2018-11-11T23:48:42.962Z,5.03
2018-11-11T23:51:11.027Z,4.20
2018-11-11T23:53:39.111Z,3.83
2018-11-11T23:56:07.162Z,4.10
2018-11-11T23:58:35.247Z,3.80
